Back to Top

Language: 

My Weather Underground Personal Weather Station Historical Data with Graphs...

Delerius Weather Station Historical Data
Daily Summary for June 14, 2017 Units:  Metric    English   Both
« Previous Day
Next Day »
Daily Weekly Monthly Yearly Custom
  High: Low: Average:
Temperature: 25.1 °C 10.7 °C 19.1 °C
Dew Point: 15.3 °C 9.6 °C 13.2 °C
Humidity: 95 % 48 % 71 %
Wind Speed: 17.7 km/h 0 km/h 7.4 km/h
Wind Gust: 30.6 km/h - -
Wind:- - South
Pressure: 1018.2 hPa 1011.4 hPa -
Precipitation: 0 mm    
Historical Graphs
 
 
Tabular Data for June 14, 2017
Time Temperature Dew Point Pressure Wind Wind Speed Wind Gust Humidity Rainfall Rate (Hourly) solar Conditions
00:03 14.1 °C 11.8 °C 1017.8 hPa Calm   3.2 km/h 86 % 0 mm 0 W/m2
00:08 13.9 °C 11.6 °C 1017.8 hPa WSW 1.6 km/h 3.2 km/h 86 % 0 mm 0 W/m2
00:13 13.9 °C 11.8 °C 1017.8 hPa WSW 1.6 km/h 3.2 km/h 87 % 0 mm 0 W/m2
00:18 13.8 °C 11.7 °C 1017.8 hPa Calm   3.2 km/h 87 % 0 mm 0 W/m2
00:23 13.8 °C 11.7 °C 1017.8 hPa Calm     87 % 0 mm 0 W/m2
00:28 13.7 °C 11.6 °C 1018.2 hPa Calm     87 % 0 mm 0 W/m2
00:33 13.7 °C 11.6 °C 1018.2 hPa Calm     87 % 0 mm 0 W/m2
00:38 13.6 °C 11.5 °C 1018.2 hPa Calm     87 % 0 mm 0 W/m2
00:43 13.4 °C 11.4 °C 1018.2 hPa Calm   1.6 km/h 88 % 0 mm 0 W/m2
00:46 13.4 °C 11.4 °C 1017.8 hPa Calm   1.6 km/h 88 % 0 mm 0 W/m2
00:51 13.3 °C 11.3 °C 1017.8 hPa Calm   1.6 km/h 88 % 0 mm 0 W/m2
00:56 13.1 °C 11.2 °C 1017.8 hPa Calm     88 % 0 mm 0 W/m2
01:01 13 °C 11.2 °C 1017.8 hPa Calm     89 % 0 mm 0 W/m2
01:06 13 °C 11.2 °C 1017.8 hPa Calm     89 % 0 mm 0 W/m2
01:11 12.9 °C 11.1 °C 1017.8 hPa Calm     89 % 0 mm 0 W/m2
01:16 12.8 °C 11.1 °C 1017.8 hPa Calm   3.2 km/h 89 % 0 mm 0 W/m2
01:21 12.7 °C 10.9 °C 1017.8 hPa SW 1.6 km/h 6.4 km/h 89 % 0 mm 0 W/m2
01:26 12.6 °C 10.8 °C 1017.8 hPa WSW 1.6 km/h 6.4 km/h 89 % 0 mm 0 W/m2
01:31 12.5 °C 10.9 °C 1018.2 hPa Calm   6.4 km/h 90 % 0 mm 0 W/m2
01:36 12.4 °C 10.8 °C 1017.8 hPa Calm     90 % 0 mm 0 W/m2
01:41 12.3 °C 10.7 °C 1018.2 hPa Calm   1.6 km/h 90 % 0 mm 0 W/m2
01:46 12.2 °C 10.6 °C 1017.8 hPa Calm   1.6 km/h 90 % 0 mm 0 W/m2
01:51 12.2 °C 10.6 °C 1018.2 hPa Calm   6.4 km/h 90 % 0 mm 0 W/m2
01:56 12.1 °C 10.7 °C 1018.2 hPa WSW 1.6 km/h 6.4 km/h 91 % 0 mm 0 W/m2
02:01 12.1 °C 10.5 °C 1018.2 hPa WSW 1.6 km/h 6.4 km/h 90 % 0 mm 0 W/m2
02:06 11.9 °C 10.5 °C 1018.2 hPa Calm   3.2 km/h 91 % 0 mm 0 W/m2
02:11 11.9 °C 10.5 °C 1017.8 hPa Calm   1.6 km/h 91 % 0 mm 0 W/m2
02:16 11.8 °C 10.4 °C 1017.8 hPa Calm   1.6 km/h 91 % 0 mm 0 W/m2
02:19 11.7 °C 10.3 °C 1017.8 hPa Calm   1.6 km/h 91 % 0 mm 0 W/m2
02:24 11.7 °C 10.3 °C 1017.8 hPa Calm     91 % 0 mm 0 W/m2
02:29 11.6 °C 10.2 °C 1017.8 hPa Calm     91 % 0 mm 0 W/m2
02:34 11.6 °C 10.2 °C 1017.8 hPa Calm     91 % 0 mm 0 W/m2
02:39 11.6 °C 10.3 °C 1017.8 hPa Calm     92 % 0 mm 0 W/m2
02:44 11.5 °C 10.1 °C 1017.8 hPa Calm     91 % 0 mm 0 W/m2
02:49 11.4 °C 10 °C 1017.8 hPa Calm     91 % 0 mm 0 W/m2
02:54 11.4 °C 10.2 °C 1017.8 hPa Calm     92 % 0 mm 0 W/m2
02:59 11.4 °C 10.2 °C 1017.8 hPa Calm     92 % 0 mm 0 W/m2
03:04 11.3 °C 10.1 °C 1017.8 hPa Calm     92 % 0 mm 0 W/m2
03:09 11.3 °C 10.1 °C 1017.8 hPa Calm     92 % 0 mm 0 W/m2
03:14 11.3 °C 10.1 °C 1017.8 hPa Calm     92 % 0 mm 0 W/m2
03:19 11.2 °C 9.9 °C 1017.8 hPa Calm     92 % 0 mm 0 W/m2
03:24 11.1 °C 9.8 °C 1017.8 hPa Calm     92 % 0 mm 0 W/m2
03:29 11.1 °C 9.8 °C 1017.8 hPa Calm     92 % 0 mm 0 W/m2
03:34 11 °C 9.7 °C 1017.8 hPa Calm     92 % 0 mm 0 W/m2
03:39 11 °C 9.7 °C 1017.8 hPa Calm     92 % 0 mm 0 W/m2
03:44 10.9 °C 9.7 °C 1017.8 hPa Calm     92 % 0 mm 0 W/m2
03:49 10.9 °C 9.8 °C 1017.8 hPa Calm     93 % 0 mm 0 W/m2
03:54 10.9 °C 9.8 °C 1017.8 hPa Calm     93 % 0 mm 0 W/m2
03:59 10.8 °C 9.7 °C 1017.8 hPa Calm     93 % 0 mm 0 W/m2
04:00 10.8 °C 9.7 °C 1017.8 hPa Calm     93 % 0 mm 0 W/m2
04:05 10.8 °C 9.7 °C 1017.8 hPa Calm     93 % 0 mm 0 W/m2
04:10 10.8 °C 9.7 °C 1017.8 hPa Calm     93 % 0 mm 0 W/m2
04:15 10.8 °C 9.7 °C 1017.5 hPa Calm     93 % 0 mm 0 W/m2
04:20 10.9 °C 9.9 °C 1017.8 hPa Calm     94 % 0 mm 0 W/m2
04:25 10.9 °C 9.8 °C 1017.8 hPa Calm     93 % 0 mm 0 W/m2
04:30 10.9 °C 9.8 °C 1017.8 hPa Calm     93 % 0 mm 0 W/m2
04:35 10.9 °C 9.8 °C 1017.8 hPa Calm     93 % 0 mm 0 W/m2
04:40 10.9 °C 9.9 °C 1017.8 hPa Calm   6.4 km/h 94 % 0 mm 0 W/m2
04:45 10.9 °C 9.8 °C 1017.8 hPa Calm   6.4 km/h 93 % 0 mm 0 W/m2
04:50 10.8 °C 9.7 °C 1017.8 hPa Calm     93 % 0 mm 5 W/m2
04:55 10.8 °C 9.7 °C 1017.8 hPa Calm     93 % 0 mm 7 W/m2
05:00 10.8 °C 9.7 °C 1017.8 hPa Calm     93 % 0 mm 9 W/m2
05:05 10.8 °C 9.7 °C 1017.8 hPa Calm     93 % 0 mm 11 W/m2
05:10 10.7 °C 9.6 °C 1017.8 hPa Calm   1.6 km/h 93 % 0 mm 11 W/m2
05:15 10.8 °C 9.9 °C 1017.8 hPa Calm   1.6 km/h 94 % 0 mm 12 W/m2
05:21 11 °C 10.1 °C 1017.8 hPa Calm   1.6 km/h 94 % 0 mm 16 W/m2
05:26 11.2 °C 10.4 °C 1017.8 hPa Calm   1.6 km/h 95 % 0 mm 21 W/m2
05:31 11.4 °C 10.6 °C 1017.8 hPa Calm   3.2 km/h 95 % 0 mm 21 W/m2
05:32 11.4 °C 10.6 °C 1017.8 hPa Calm   3.2 km/h 95 % 0 mm 21 W/m2
05:37 11.5 °C 10.7 °C 1017.5 hPa Calm   3.2 km/h 95 % 0 mm 26 W/m2
05:42 11.6 °C 10.8 °C 1017.8 hPa Calm   1.6 km/h 95 % 0 mm 28 W/m2
05:47 11.6 °C 10.7 °C 1017.8 hPa Calm   1.6 km/h 94 % 0 mm 30 W/m2
05:52 11.4 °C 10.4 °C 1017.8 hPa Calm     94 % 0 mm 39 W/m2
05:57 11.4 °C 10.4 °C 1017.8 hPa Calm     94 % 0 mm 107 W/m2
06:02 11.5 °C 10.6 °C 1017.8 hPa NW 1.6 km/h 4.8 km/h 94 % 0 mm 118 W/m2
06:07 11.7 °C 10.9 °C 1017.8 hPa NW 3.2 km/h 6.4 km/h 95 % 0 mm 132 W/m2
06:12 12.1 °C 11.3 °C 1017.8 hPa NW 3.2 km/h 6.4 km/h 95 % 0 mm 98 W/m2
06:17 12.3 °C 11.5 °C 1017.8 hPa NW 1.6 km/h 6.4 km/h 95 % 0 mm 62 W/m2
06:22 12.5 °C 11.7 °C 1017.8 hPa Calm   3.2 km/h 95 % 0 mm 77 W/m2
06:27 12.7 °C 11.9 °C 1017.8 hPa Calm   3.2 km/h 95 % 0 mm 65 W/m2
06:32 12.9 °C 12.1 °C 1017.8 hPa Calm   1.6 km/h 95 % 0 mm 53 W/m2
06:37 13.1 °C 12.2 °C 1017.8 hPa Calm     94 % 0 mm 49 W/m2
06:42 13.2 °C 12.3 °C 1017.8 hPa Calm     94 % 0 mm 49 W/m2
06:47 13.4 °C 12.4 °C 1017.8 hPa Calm   1.6 km/h 94 % 0 mm 47 W/m2
06:52 13.6 °C 12.5 °C 1017.8 hPa Calm   6.4 km/h 93 % 0 mm 46 W/m2
06:57 13.8 °C 12.7 °C 1017.8 hPa NW 1.6 km/h 6.4 km/h 93 % 0 mm 46 W/m2
07:02 14.1 °C 12.8 °C 1017.8 hPa NW 1.6 km/h 6.4 km/h 92 % 0 mm 49 W/m2
07:07 14.3 °C 13 °C 1017.8 hPa Calm   3.2 km/h 92 % 0 mm 49 W/m2
07:12 14.5 °C 13.1 °C 1017.8 hPa Calm   3.2 km/h 91 % 0 mm 206 W/m2
07:18 14.7 °C 13.2 °C 1017.8 hPa Calm   1.6 km/h 91 % 0 mm 279 W/m2
07:23 15.1 °C 13.4 °C 1017.8 hPa Calm   3.2 km/h 90 % 0 mm 295 W/m2
07:28 15.6 °C 13.8 °C 1017.8 hPa Calm   6.4 km/h 89 % 0 mm 297 W/m2
07:33 16.1 °C 13.9 °C 1017.5 hPa NW 1.6 km/h 6.4 km/h 87 % 0 mm 316 W/m2
07:38 16.4 °C 13.9 °C 1017.5 hPa West 3.2 km/h 8 km/h 85 % 0 mm 320 W/m2
07:43 16.8 °C 13.9 °C 1017.5 hPa SW 3.2 km/h 9.7 km/h 83 % 0 mm 362 W/m2
07:48 17.1 °C 14 °C 1017.5 hPa SW 3.2 km/h 9.7 km/h 82 % 0 mm 376 W/m2
07:53 17.4 °C 14.1 °C 1017.5 hPa SW 4.8 km/h 11.3 km/h 81 % 0 mm 387 W/m2
07:58 17.7 °C 14.2 °C 1017.5 hPa SSW 6.4 km/h 11.3 km/h 80 % 0 mm 373 W/m2
08:03 17.8 °C 14.1 °C 1017.5 hPa SSW 8 km/h 14.5 km/h 79 % 0 mm 378 W/m2
08:08 18.2 °C 14.3 °C 1017.5 hPa South 8 km/h 14.5 km/h 78 % 0 mm 374 W/m2
08:13 18.3 °C 14.2 °C 1017.5 hPa South 8 km/h 16.1 km/h 77 % 0 mm 415 W/m2
08:18 18.5 °C 14.4 °C 1017.5 hPa South 8 km/h 16.1 km/h 77 % 0 mm 406 W/m2
08:23 18.8 °C 14.5 °C 1017.5 hPa South 6.4 km/h 14.5 km/h 76 % 0 mm 452 W/m2
08:28 18.9 °C 14.6 °C 1017.5 hPa South 8 km/h 14.5 km/h 76 % 0 mm 478 W/m2
08:33 19.1 °C 14.6 °C 1017.5 hPa South 9.7 km/h 17.7 km/h 75 % 0 mm 475 W/m2
08:34 19.2 °C 14.7 °C 1017.5 hPa South 9.7 km/h 17.7 km/h 75 % 0 mm 485 W/m2
08:39 19.2 °C 14.4 °C 1017.5 hPa SSW 9.7 km/h 17.7 km/h 74 % 0 mm 496 W/m2
08:49 19.6 °C 14.6 °C 1017.5 hPa SSW 9.7 km/h 17.7 km/h 73 % 0 mm 534 W/m2
08:54 19.7 °C 14.5 °C 1017.5 hPa SSW 11.3 km/h 22.5 km/h 72 % 0 mm 545 W/m2
08:59 19.8 °C 14.6 °C 1017.5 hPa SSW 12.9 km/h 22.5 km/h 72 % 0 mm 555 W/m2
09:04 20 °C 14.6 °C 1017.5 hPa SW 11.3 km/h 17.7 km/h 71 % 0 mm 561 W/m2
09:09 20.2 °C 14.6 °C 1017.5 hPa SW 11.3 km/h 17.7 km/h 70 % 0 mm 592 W/m2
09:14 20.3 °C 14.4 °C 1017.5 hPa SW 11.3 km/h 19.3 km/h 69 % 0 mm 610 W/m2
09:19 20.3 °C 14.2 °C 1017.2 hPa SW 12.9 km/h 19.3 km/h 68 % 0 mm 617 W/m2
09:24 20.4 °C 14.1 °C 1017.2 hPa SSW 11.3 km/h 19.3 km/h 67 % 0 mm 610 W/m2
09:26 20.4 °C 14.1 °C 1017.2 hPa SSW 11.3 km/h 19.3 km/h 67 % 0 mm 592 W/m2
09:31 20.5 °C 14.2 °C 1017.2 hPa SSW 11.3 km/h 19.3 km/h 67 % 0 mm 605 W/m2
09:36 20.8 °C 14.2 °C 1017.2 hPa SSW 9.7 km/h 19.3 km/h 66 % 0 mm 629 W/m2
09:41 20.9 °C 14.3 °C 1017.2 hPa SW 9.7 km/h 16.1 km/h 66 % 0 mm 694 W/m2
09:46 21.2 °C 14.3 °C 1017.2 hPa SW 9.7 km/h 17.7 km/h 65 % 0 mm 626 W/m2
09:51 21.2 °C 14.3 °C 1016.8 hPa SW 9.7 km/h 17.7 km/h 65 % 0 mm 540 W/m2
09:56 21.1 °C 14.3 °C 1016.8 hPa SSW 9.7 km/h 19.3 km/h 65 % 0 mm 573 W/m2
10:01 21.1 °C 14.3 °C 1016.8 hPa SSW 11.3 km/h 20.9 km/h 65 % 0 mm 628 W/m2
10:06 21.1 °C 14.3 °C 1016.8 hPa SSW 11.3 km/h 20.9 km/h 65 % 0 mm 649 W/m2
10:11 21.3 °C 14.4 °C 1016.8 hPa SSW 9.7 km/h 16.1 km/h 65 % 0 mm 571 W/m2
10:16 21.5 °C 14.4 °C 1016.8 hPa SSW 11.3 km/h 20.9 km/h 64 % 0 mm 584 W/m2
10:21 21.6 °C 14.5 °C 1016.8 hPa SSW 11.3 km/h 20.9 km/h 64 % 0 mm 577 W/m2
10:26 21.5 °C 14.4 °C 1016.8 hPa SSW 11.3 km/h 19.3 km/h 64 % 0 mm 466 W/m2
10:31 21.5 °C 14.4 °C 1016.8 hPa SW 11.3 km/h 17.7 km/h 64 % 0 mm 599 W/m2
10:36 21.6 °C 14.5 °C 1016.8 hPa SW 9.7 km/h 17.7 km/h 64 % 0 mm 601 W/m2
10:41 21.6 °C 14.5 °C 1016.8 hPa SW 9.7 km/h 17.7 km/h 64 % 0 mm 735 W/m2
10:46 21.6 °C 14.5 °C 1016.5 hPa SW 8 km/h 16.1 km/h 64 % 0 mm 362 W/m2
10:51 21.7 °C 14.3 °C 1016.5 hPa SW 8 km/h 16.1 km/h 63 % 0 mm 689 W/m2
10:56 21.8 °C 14.7 °C 1016.5 hPa SSW 9.7 km/h 16.1 km/h 64 % 0 mm 378 W/m2
11:01 21.9 °C 14.6 °C 1016.5 hPa SSW 8 km/h 16.1 km/h 63 % 0 mm 387 W/m2
11:06 21.7 °C 14.3 °C 1016.5 hPa SW 9.7 km/h 14.5 km/h 63 % 0 mm 626 W/m2
11:11 21.9 °C 14.8 °C 1016.5 hPa SW 6.4 km/h 14.5 km/h 64 % 0 mm 512 W/m2
11:16 22 °C 14.6 °C 1016.5 hPa SSW 6.4 km/h 14.5 km/h 63 % 0 mm 369 W/m2
11:21 22 °C 14.6 °C 1016.5 hPa SSW 8 km/h 14.5 km/h 63 % 0 mm 531 W/m2
11:27 21.9 °C 14.6 °C 1016.1 hPa SSW 9.7 km/h 20.9 km/h 63 % 0 mm 686 W/m2
11:32 22.1 °C 14.7 °C 1016.1 hPa SSW 11.3 km/h 20.9 km/h 63 % 0 mm 911 W/m2
11:37 22.3 °C 14.7 °C 1016.1 hPa South 9.7 km/h 19.3 km/h 62 % 0 mm 868 W/m2
11:42 22.3 °C 14.4 °C 1016.1 hPa SSW 11.3 km/h 19.3 km/h 61 % 0 mm 918 W/m2
11:47 22.4 °C 14.5 °C 1016.1 hPa SSW 11.3 km/h 19.3 km/h 61 % 0 mm 902 W/m2
11:52 22.6 °C 14.7 °C 1016.1 hPa SSW 9.7 km/h 19.3 km/h 61 % 0 mm 937 W/m2
11:57 22.7 °C 14.8 °C 1015.8 hPa SSW 8 km/h 19.3 km/h 61 % 0 mm 976 W/m2
12:02 23 °C 14.8 °C 1015.8 hPa SW 8 km/h 16.1 km/h 60 % 0 mm 826 W/m2
12:07 23.1 °C 14.7 °C 1015.8 hPa SW 9.7 km/h 16.1 km/h 59 % 0 mm 406 W/m2
12:12 23 °C 14.8 °C 1015.8 hPa SW 9.7 km/h 16.1 km/h 60 % 0 mm 388 W/m2
12:17 23.1 °C 14.4 °C 1015.8 hPa SSW 9.7 km/h 17.7 km/h 58 % 0 mm 489 W/m2
12:22 23.1 °C 14.1 °C 1015.8 hPa SW 12.9 km/h 24.1 km/h 57 % 0 mm 891 W/m2
12:27 23 °C 14 °C 1015.8 hPa SSW 12.9 km/h 24.1 km/h 57 % 0 mm 403 W/m2
12:32 23 °C 14.3 °C 1015.8 hPa South 9.7 km/h 20.9 km/h 58 % 0 mm 793 W/m2
12:38 23.2 °C 14.5 °C 1015.8 hPa South 8 km/h 14.5 km/h 58 % 0 mm 802 W/m2
12:43 23.5 °C 13.9 °C 1015.5 hPa SSW 8 km/h 16.1 km/h 55 % 0 mm 388 W/m2
12:48 23.6 °C 14.6 °C 1015.5 hPa South 8 km/h 16.1 km/h 57 % 0 mm 664 W/m2
12:53 23.6 °C 14.1 °C 1015.5 hPa SSE 11.3 km/h 20.9 km/h 55 % 0 mm 624 W/m2
12:58 23.6 °C 14.3 °C 1015.5 hPa SSE 11.3 km/h 20.9 km/h 56 % 0 mm 587 W/m2
13:03 23.6 °C 14.3 °C 1015.5 hPa SSE 9.7 km/h 19.3 km/h 56 % 0 mm 487 W/m2
13:08 23.6 °C 14.1 °C 1015.1 hPa SSE 12.9 km/h 24.1 km/h 55 % 0 mm 696 W/m2
13:13 23.7 °C 14.4 °C 1015.1 hPa SSE 14.5 km/h 25.7 km/h 56 % 0 mm 684 W/m2
13:18 23.6 °C 14.3 °C 1015.1 hPa SSE 14.5 km/h 25.7 km/h 56 % 0 mm 643 W/m2
13:23 23.5 °C 13.9 °C 1015.1 hPa SSE 16.1 km/h 25.7 km/h 55 % 0 mm 383 W/m2
13:28 23.3 °C 13.8 °C 1015.1 hPa SSE 16.1 km/h 24.1 km/h 55 % 0 mm 522 W/m2
13:33 23.4 °C 14.1 °C 1015.1 hPa SSE 14.5 km/h 25.7 km/h 56 % 0 mm 482 W/m2
13:38 23.3 °C 14.3 °C 1014.8 hPa SSE 14.5 km/h 25.7 km/h 57 % 0 mm 575 W/m2
13:43 23.4 °C 14.7 °C 1014.8 hPa SSE 14.5 km/h 24.1 km/h 58 % 0 mm 513 W/m2
13:48 23.4 °C 14.9 °C 1014.8 hPa SSE 12.9 km/h 24.1 km/h 59 % 0 mm 341 W/m2
13:53 23.4 °C 14.7 °C 1014.8 hPa SSE 12.9 km/h 20.9 km/h 58 % 0 mm 295 W/m2
13:58 23.2 °C 14.5 °C 1014.8 hPa SSE 12.9 km/h 22.5 km/h 58 % 0 mm 302 W/m2
14:03 23.2 °C 14.5 °C 1015.1 hPa SSE 14.5 km/h 22.5 km/h 58 % 0 mm 471 W/m2
14:08 23.2 °C 14.7 °C 1014.8 hPa SSE 12.9 km/h 24.1 km/h 59 % 0 mm 374 W/m2
14:13 23.3 °C 14.6 °C 1015.1 hPa South 11.3 km/h 24.1 km/h 58 % 0 mm 504 W/m2
14:18 23.4 °C 14.9 °C 1014.8 hPa SSE 12.9 km/h 22.5 km/h 59 % 0 mm 715 W/m2
14:23 23.7 °C 14.7 °C 1014.8 hPa South 14.5 km/h 22.5 km/h 57 % 0 mm 650 W/m2
14:28 23.9 °C 15.1 °C 1014.8 hPa South 12.9 km/h 22.5 km/h 58 % 0 mm 742 W/m2
14:33 24.1 °C 15.1 °C 1014.8 hPa South 12.9 km/h 22.5 km/h 57 % 0 mm 661 W/m2
14:38 24.1 °C 14.8 °C 1014.8 hPa SSE 14.5 km/h 22.5 km/h 56 % 0 mm 689 W/m2
14:43 24.1 °C 14.5 °C 1014.8 hPa SSE 14.5 km/h 29 km/h 55 % 0 mm 425 W/m2
14:48 24 °C 14.7 °C 1014.8 hPa SSE 14.5 km/h 29 km/h 56 % 0 mm 380 W/m2
14:53 23.9 °C 14.3 °C 1014.8 hPa South 14.5 km/h 25.7 km/h 55 % 0 mm 573 W/m2
14:54 23.9 °C 14.3 °C 1014.8 hPa South 14.5 km/h 25.7 km/h 55 % 0 mm 571 W/m2
14:59 23.9 °C 14.3 °C 1014.8 hPa SSE 14.5 km/h 22.5 km/h 55 % 0 mm 610 W/m2
15:04 23.9 °C 14.3 °C 1014.8 hPa SSE 14.5 km/h 24.1 km/h 55 % 0 mm 362 W/m2
15:09 23.8 °C 14.2 °C 1014.4 hPa SSE 14.5 km/h 25.7 km/h 55 % 0 mm 712 W/m2
15:14 23.9 °C 14.3 °C 1014.4 hPa SSE 12.9 km/h 25.7 km/h 55 % 0 mm 708 W/m2
15:19 24.2 °C 14.3 °C 1014.4 hPa SE 12.9 km/h 29 km/h 54 % 0 mm 666 W/m2
15:24 24.4 °C 14.2 °C 1014.4 hPa South 14.5 km/h 29 km/h 53 % 0 mm 881 W/m2
15:29 24.4 °C 14.5 °C 1014.1 hPa South 14.5 km/h 25.7 km/h 54 % 0 mm 777 W/m2
15:34 24.5 °C 14.3 °C 1014.1 hPa South 12.9 km/h 25.7 km/h 53 % 0 mm 294 W/m2
15:39 24.3 °C 14.1 °C 1014.1 hPa SSE 14.5 km/h 25.7 km/h 53 % 0 mm 294 W/m2
15:44 24.2 °C 14 °C 1014.1 hPa SSE 16.1 km/h 29 km/h 53 % 0 mm 341 W/m2
15:49 24.3 °C 14.4 °C 1014.1 hPa SSE 14.5 km/h 29 km/h 54 % 0 mm 663 W/m2
15:51 24.4 °C 14.5 °C 1014.1 hPa South 12.9 km/h 22.5 km/h 54 % 0 mm 879 W/m2
15:56 24.7 °C 14.5 °C 1014.1 hPa SSE 14.5 km/h 25.7 km/h 53 % 0 mm 877 W/m2
16:01 24.8 °C 14 °C 1014.1 hPa South 14.5 km/h 25.7 km/h 51 % 0 mm 882 W/m2
16:06 24.8 °C 13.7 °C 1014.1 hPa SSW 16.1 km/h 30.6 km/h 50 % 0 mm 679 W/m2
16:11 24.8 °C 14 °C 1013.8 hPa South 16.1 km/h 30.6 km/h 51 % 0 mm 631 W/m2
16:16 25 °C 13.6 °C 1013.8 hPa South 12.9 km/h 29 km/h 49 % 0 mm 339 W/m2
16:21 25 °C 13.6 °C 1013.8 hPa South 14.5 km/h 24.1 km/h 49 % 0 mm 788 W/m2
16:26 25 °C 13.2 °C 1013.8 hPa SSW 16.1 km/h 29 km/h 48 % 0 mm 729 W/m2
16:32 24.7 °C 13.3 °C 1013.8 hPa SSW 17.7 km/h 29 km/h 49 % 0 mm 265 W/m2
16:37 24.6 °C 13.5 °C 1013.8 hPa SSW 16.1 km/h 24.1 km/h 50 % 0 mm 654 W/m2
16:42 24.6 °C 13.5 °C 1013.8 hPa South 16.1 km/h 24.1 km/h 50 % 0 mm 243 W/m2
16:47 24.4 °C 13.6 °C 1013.8 hPa SSE 14.5 km/h 25.7 km/h 51 % 0 mm 299 W/m2
16:52 24.4 °C 14.2 °C 1013.4 hPa South 11.3 km/h 25.7 km/h 53 % 0 mm 622 W/m2
16:57 24.7 °C 14.2 °C 1013.4 hPa SSW 9.7 km/h 17.7 km/h 52 % 0 mm 752 W/m2
17:02 25.1 °C 14.6 °C 1013.4 hPa SSW 9.7 km/h 25.7 km/h 52 % 0 mm 613 W/m2
17:08 25.1 °C 14.3 °C 1013.4 hPa SSW 12.9 km/h 25.7 km/h 51 % 0 mm 174 W/m2
17:13 24.6 °C 14.1 °C 1013.4 hPa SSW 14.5 km/h 29 km/h 52 % 0 mm 176 W/m2
17:18 24.5 °C 14 °C 1013.4 hPa SSW 12.9 km/h 29 km/h 52 % 0 mm 524 W/m2
17:23 24.5 °C 14.3 °C 1013.1 hPa SSW 12.9 km/h 20.9 km/h 53 % 0 mm 529 W/m2
17:28 24.6 °C 13.8 °C 1013.1 hPa SW 12.9 km/h 22.5 km/h 51 % 0 mm 464 W/m2
17:33 24.7 °C 13.3 °C 1013.1 hPa SW 14.5 km/h 30.6 km/h 49 % 0 mm 487 W/m2
17:38 24.7 °C 13.3 °C 1013.1 hPa SSW 14.5 km/h 30.6 km/h 49 % 0 mm 207 W/m2
17:43 24.8 °C 13.3 °C 1013.1 hPa SSW 12.9 km/h 20.9 km/h 49 % 0 mm 492 W/m2
17:48 24.9 °C 13.1 °C 1013.1 hPa South 12.9 km/h 22.5 km/h 48 % 0 mm 192 W/m2
17:53 24.7 °C 13.3 °C 1013.1 hPa South 12.9 km/h 25.7 km/h 49 % 0 mm 192 W/m2
17:58 24.5 °C 13.4 °C 1013.1 hPa SSW 14.5 km/h 25.7 km/h 50 % 0 mm 183 W/m2
18:03 24.3 °C 13.5 °C 1013.1 hPa SSW 12.9 km/h 20.9 km/h 51 % 0 mm 213 W/m2
18:08 24.3 °C 13.8 °C 1012.8 hPa SSW 11.3 km/h 20.9 km/h 52 % 0 mm 285 W/m2
18:13 24.5 °C 13.7 °C 1013.1 hPa South 9.7 km/h 19.3 km/h 51 % 0 mm 160 W/m2
18:18 24.5 °C 13.7 °C 1013.1 hPa South 11.3 km/h 20.9 km/h 51 % 0 mm 165 W/m2
18:23 24.4 °C 13.9 °C 1013.1 hPa SSW 11.3 km/h 20.9 km/h 52 % 0 mm 183 W/m2
18:28 24.4 °C 14.2 °C 1012.8 hPa SSW 6.4 km/h 19.3 km/h 53 % 0 mm 178 W/m2
18:33 24.4 °C 14.2 °C 1012.8 hPa South 6.4 km/h 14.5 km/h 53 % 0 mm 241 W/m2
18:38 24.4 °C 14.2 °C 1012.8 hPa South 8 km/h 16.1 km/h 53 % 0 mm 313 W/m2
18:43 24.3 °C 14.1 °C 1012.8 hPa South 11.3 km/h 22.5 km/h 53 % 0 mm 149 W/m2
18:48 24.1 °C 14.2 °C 1012.8 hPa South 11.3 km/h 22.5 km/h 54 % 0 mm 125 W/m2
18:53 24 °C 14.1 °C 1012.8 hPa South 9.7 km/h 20.9 km/h 54 % 0 mm 130 W/m2
18:58 23.9 °C 14.3 °C 1012.8 hPa SSE 11.3 km/h 20.9 km/h 55 % 0 mm 125 W/m2
19:03 23.8 °C 14.2 °C 1012.8 hPa South 11.3 km/h 19.3 km/h 55 % 0 mm 102 W/m2
19:08 23.7 °C 14.4 °C 1012.8 hPa South 8 km/h 19.3 km/h 56 % 0 mm 107 W/m2
19:13 23.7 °C 14.4 °C 1012.8 hPa South 6.4 km/h 14.5 km/h 56 % 0 mm 118 W/m2
19:18 23.7 °C 14.4 °C 1012.8 hPa South 9.7 km/h 20.9 km/h 56 % 0 mm 223 W/m2
19:23 23.7 °C 14.4 °C 1012.4 hPa SSW 11.3 km/h 20.9 km/h 56 % 0 mm 105 W/m2
19:28 23.7 °C 14.4 °C 1012.4 hPa SSW 9.7 km/h 16.1 km/h 56 % 0 mm 98 W/m2
19:33 23.7 °C 14.4 °C 1012.4 hPa South 9.7 km/h 19.3 km/h 56 % 0 mm 137 W/m2
19:38 23.6 °C 14.3 °C 1012.4 hPa South 9.7 km/h 19.3 km/h 56 % 0 mm 141 W/m2
19:44 23.6 °C 14.3 °C 1012.1 hPa South 9.7 km/h 19.3 km/h 56 % 0 mm 135 W/m2
19:49 23.7 °C 14.4 °C 1012.1 hPa South 9.7 km/h 19.3 km/h 56 % 0 mm 127 W/m2
19:54 23.7 °C 14.4 °C 1012.1 hPa South 9.7 km/h 16.1 km/h 56 % 0 mm 70 W/m2
19:59 23.6 °C 14.6 °C 1012.1 hPa SSE 8 km/h 16.1 km/h 57 % 0 mm 54 W/m2
20:04 23.4 °C 14.4 °C 1012.1 hPa SSE 8 km/h 19.3 km/h 57 % 0 mm 54 W/m2
20:09 23.2 °C 14.5 °C 1012.1 hPa SSE 9.7 km/h 19.3 km/h 58 % 0 mm 49 W/m2
20:14 23.1 °C 14.4 °C 1012.1 hPa SSE 8 km/h 14.5 km/h 58 % 0 mm 53 W/m2
20:19 23 °C 14.3 °C 1012.1 hPa SSE 8 km/h 12.9 km/h 58 % 0 mm 39 W/m2
20:24 22.9 °C 14.4 °C 1012.1 hPa SSE 6.4 km/h 12.9 km/h 59 % 0 mm 42 W/m2
20:29 22.8 °C 14.4 °C 1011.7 hPa SSE 6.4 km/h 11.3 km/h 59 % 0 mm 42 W/m2
20:34 22.7 °C 14.6 °C 1011.7 hPa SSE 6.4 km/h 12.9 km/h 60 % 0 mm 42 W/m2
20:39 22.6 °C 14.7 °C 1012.1 hPa SSE 6.4 km/h 12.9 km/h 61 % 0 mm 37 W/m2
20:44 22.5 °C 14.6 °C 1011.7 hPa SSE 6.4 km/h 9.7 km/h 61 % 0 mm 32 W/m2
20:49 22.4 °C 14.8 °C 1011.7 hPa SE 6.4 km/h 11.3 km/h 62 % 0 mm 25 W/m2
20:54 22.4 °C 14.8 °C 1011.7 hPa SE 4.8 km/h 11.3 km/h 62 % 0 mm 32 W/m2
20:59 22.3 °C 14.7 °C 1011.7 hPa SE 6.4 km/h 9.7 km/h 62 % 0 mm 33 W/m2
21:04 22.2 °C 14.8 °C 1011.7 hPa SE 6.4 km/h 11.3 km/h 63 % 0 mm 26 W/m2
21:09 22.2 °C 15.1 °C 1011.7 hPa SE 6.4 km/h 11.3 km/h 64 % 0 mm 16 W/m2
21:14 22.1 °C 14.9 °C 1012.1 hPa SE 4.8 km/h 9.7 km/h 64 % 0 mm 11 W/m2
21:19 21.9 °C 15 °C 1011.7 hPa SE 4.8 km/h 9.7 km/h 65 % 0 mm 9 W/m2
21:24 21.8 °C 15.2 °C 1011.7 hPa SE 6.4 km/h 12.9 km/h 66 % 0 mm 5 W/m2
21:29 21.7 °C 15.1 °C 1012.1 hPa SE 8 km/h 14.5 km/h 66 % 0 mm 0 W/m2
21:34 21.6 °C 15.2 °C 1011.7 hPa SE 11.3 km/h 19.3 km/h 67 % 0 mm 0 W/m2
21:39 21.5 °C 15.1 °C 1012.1 hPa SE 12.9 km/h 19.3 km/h 67 % 0 mm 0 W/m2
21:44 21.5 °C 15.1 °C 1012.1 hPa SE 11.3 km/h 22.5 km/h 67 % 0 mm 0 W/m2
21:49 21.4 °C 15 °C 1012.1 hPa SSE 11.3 km/h 22.5 km/h 67 % 0 mm 0 W/m2
21:54 21.4 °C 15.2 °C 1012.1 hPa SSE 11.3 km/h 19.3 km/h 68 % 0 mm 0 W/m2
21:59 21.3 °C 15.2 °C 1012.1 hPa SSE 9.7 km/h 16.1 km/h 68 % 0 mm 0 W/m2
22:04 21.3 °C 15.2 °C 1012.1 hPa SSE 9.7 km/h 16.1 km/h 68 % 0 mm 0 W/m2
22:09 21.2 °C 15.3 °C 1012.1 hPa SSE 9.7 km/h 14.5 km/h 69 % 0 mm 0 W/m2
22:14 21.1 °C 15.2 °C 1012.1 hPa SSE 9.7 km/h 14.5 km/h 69 % 0 mm 0 W/m2
22:19 21.1 °C 15.2 °C 1012.1 hPa SSE 8 km/h 12.9 km/h 69 % 0 mm 0 W/m2
22:24 21 °C 15.1 °C 1012.1 hPa SSE 8 km/h 12.9 km/h 69 % 0 mm 0 W/m2
22:29 20.9 °C 15.2 °C 1011.7 hPa SSE 9.7 km/h 14.5 km/h 70 % 0 mm 0 W/m2
22:34 20.8 °C 15.1 °C 1012.1 hPa SSE 9.7 km/h 17.7 km/h 70 % 0 mm 0 W/m2
22:39 20.6 °C 14.9 °C 1011.7 hPa SE 11.3 km/h 17.7 km/h 70 % 0 mm 0 W/m2
22:44 20.5 °C 14.8 °C 1011.7 hPa SE 11.3 km/h 17.7 km/h 70 % 0 mm 0 W/m2
22:49 20.4 °C 14.7 °C 1011.7 hPa SSE 11.3 km/h 20.9 km/h 70 % 0 mm 0 W/m2
22:54 20.3 °C 14.9 °C 1011.7 hPa SSE 12.9 km/h 20.9 km/h 71 % 0 mm 0 W/m2
22:59 20.2 °C 14.8 °C 1011.7 hPa SE 12.9 km/h 19.3 km/h 71 % 0 mm 0 W/m2
23:04 20.2 °C 14.8 °C 1011.7 hPa SSE 12.9 km/h 20.9 km/h 71 % 0 mm 0 W/m2
23:09 20.1 °C 14.7 °C 1011.7 hPa SSE 12.9 km/h 20.9 km/h 71 % 0 mm 0 W/m2
23:14 20 °C 14.6 °C 1011.7 hPa SSE 12.9 km/h 19.3 km/h 71 % 0 mm 0 W/m2
23:19 19.9 °C 14.5 °C 1011.7 hPa SSE 11.3 km/h 19.3 km/h 71 % 0 mm 0 W/m2
23:24 19.8 °C 14.4 °C 1011.4 hPa SE 12.9 km/h 19.3 km/h 71 % 0 mm 0 W/m2
23:29 19.8 °C 14.4 °C 1011.7 hPa SE 12.9 km/h 19.3 km/h 71 % 0 mm 0 W/m2
23:34 19.7 °C 14.3 °C 1011.7 hPa SE 12.9 km/h 19.3 km/h 71 % 0 mm 0 W/m2
23:39 19.6 °C 14.4 °C 1011.7 hPa SE 11.3 km/h 17.7 km/h 72 % 0 mm 0 W/m2
23:45 19.6 °C 14.4 °C 1011.4 hPa SE 11.3 km/h 17.7 km/h 72 % 0 mm 0 W/m2
23:50 19.5 °C 14.3 °C 1011.4 hPa SE 9.7 km/h 14.5 km/h 72 % 0 mm 0 W/m2
Delerius-Weather
Compliments of Weather Underground - 2.25 mb

Data updates at regular intervals.